<?xml version="1.0" encoding="UTF-8" standalone="no" ?>
<gpx xmlns="http://www.topografix.com/GPX/1/1" xmlns:xsi="http://www.w3.org/2001/XMLSchema-instance" xsi:schemaLocation="http://www.topografix.com/GPX/1/1 http://www.topografix.com/GPX/1/1/gpx.xsd" version="1.1" creator="VisuGPX - https://www.visugpx.com">
  <metadata>
    <name>Tête de Fer</name>
    <desc><![CDATA[Ski de randonnée - circuit en boucle au départ de Larche.]]></desc>
  </metadata>
  <trk>
    <name><![CDATA[30-JAN-16 12:07:51]]></name>
    <trkseg>
      <trkpt lat="44.44641" lon="6.85286">
        <ele>1659.85</ele>
        <time>2016-01-30T07:28:11Z</time>
      </trkpt>
      <trkpt lat="44.44632" lon="6.85289">
        <ele>1682.93</ele>
        <time>2016-01-30T07:29:11Z</time>
      </trkpt>
      <trkpt lat="44.44618" lon="6.85286">
        <ele>1684.37</ele>
        <time>2016-01-30T07:30:11Z</time>
      </trkpt>
      <trkpt lat="44.44536" lon="6.85273">
        <ele>1684.85</ele>
        <time>2016-01-30T07:31:11Z</time>
      </trkpt>
      <trkpt lat="44.44508" lon="6.85213">
        <ele>1689.17</ele>
        <time>2016-01-30T07:32:11Z</time>
      </trkpt>
      <trkpt lat="44.44491" lon="6.85215">
        <ele>1689.17</ele>
        <time>2016-01-30T07:33:11Z</time>
      </trkpt>
      <trkpt lat="44.44439" lon="6.85275">
        <ele>1688.69</ele>
        <time>2016-01-30T07:34:11Z</time>
      </trkpt>
      <trkpt lat="44.44366" lon="6.85327">
        <ele>1691.58</ele>
        <time>2016-01-30T07:35:11Z</time>
      </trkpt>
      <trkpt lat="44.44306" lon="6.85398">
        <ele>1694.94</ele>
        <time>2016-01-30T07:36:11Z</time>
      </trkpt>
      <trkpt lat="44.44258" lon="6.8549">
        <ele>1703.59</ele>
        <time>2016-01-30T07:37:11Z</time>
      </trkpt>
      <trkpt lat="44.44205" lon="6.8559">
        <ele>1702.63</ele>
        <time>2016-01-30T07:38:11Z</time>
      </trkpt>
      <trkpt lat="44.44133" lon="6.85649">
        <ele>1706</ele>
        <time>2016-01-30T07:39:11Z</time>
      </trkpt>
      <trkpt lat="44.44058" lon="6.85692">
        <ele>1709.84</ele>
        <time>2016-01-30T07:40:11Z</time>
      </trkpt>
      <trkpt lat="44.44018" lon="6.85696">
        <ele>1715.13</ele>
        <time>2016-01-30T07:41:11Z</time>
      </trkpt>
      <trkpt lat="44.44018" lon="6.85697">
        <ele>1713.21</ele>
        <time>2016-01-30T07:42:10Z</time>
      </trkpt>
      <trkpt lat="44.43988" lon="6.85691">
        <ele>1716.09</ele>
        <time>2016-01-30T07:43:11Z</time>
      </trkpt>
      <trkpt lat="44.43961" lon="6.85699">
        <ele>1719.46</ele>
        <time>2016-01-30T07:44:11Z</time>
      </trkpt>
      <trkpt lat="44.43911" lon="6.85686">
        <ele>1730.99</ele>
        <time>2016-01-30T07:45:11Z</time>
      </trkpt>
      <trkpt lat="44.43896" lon="6.85649">
        <ele>1744.45</ele>
        <time>2016-01-30T07:46:11Z</time>
      </trkpt>
      <trkpt lat="44.43881" lon="6.85661">
        <ele>1744.45</ele>
        <time>2016-01-30T07:47:11Z</time>
      </trkpt>
      <trkpt lat="44.43864" lon="6.857">
        <ele>1753.1</ele>
        <time>2016-01-30T07:48:11Z</time>
      </trkpt>
      <trkpt lat="44.43842" lon="6.85699">
        <ele>1765.12</ele>
        <time>2016-01-30T07:49:11Z</time>
      </trkpt>
      <trkpt lat="44.43829" lon="6.85705">
        <ele>1772.81</ele>
        <time>2016-01-30T07:50:11Z</time>
      </trkpt>
      <trkpt lat="44.43812" lon="6.85682">
        <ele>1783.38</ele>
        <time>2016-01-30T07:51:11Z</time>
      </trkpt>
      <trkpt lat="44.43791" lon="6.85668">
        <ele>1792.03</ele>
        <time>2016-01-30T07:52:11Z</time>
      </trkpt>
      <trkpt lat="44.43764" lon="6.85635">
        <ele>1808.86</ele>
        <time>2016-01-30T07:53:10Z</time>
      </trkpt>
      <trkpt lat="44.43747" lon="6.85651">
        <ele>1820.87</ele>
        <time>2016-01-30T07:54:11Z</time>
      </trkpt>
      <trkpt lat="44.43728" lon="6.85628">
        <ele>1833.37</ele>
        <time>2016-01-30T07:55:11Z</time>
      </trkpt>
      <trkpt lat="44.43721" lon="6.85586">
        <ele>1843.47</ele>
        <time>2016-01-30T07:56:11Z</time>
      </trkpt>
      <trkpt lat="44.437" lon="6.85567">
        <ele>1853.56</ele>
        <time>2016-01-30T07:57:11Z</time>
      </trkpt>
      <trkpt lat="44.43667" lon="6.85546">
        <ele>1866.54</ele>
        <time>2016-01-30T07:58:11Z</time>
      </trkpt>
      <trkpt lat="44.43631" lon="6.85505">
        <ele>1880.48</ele>
        <time>2016-01-30T07:59:11Z</time>
      </trkpt>
      <trkpt lat="44.43632" lon="6.85503">
        <ele>1881.44</ele>
        <time>2016-01-30T08:00:11Z</time>
      </trkpt>
      <trkpt lat="44.4361" lon="6.85471">
        <ele>1884.32</ele>
        <time>2016-01-30T08:01:11Z</time>
      </trkpt>
      <trkpt lat="44.43571" lon="6.85424">
        <ele>1901.63</ele>
        <time>2016-01-30T08:02:11Z</time>
      </trkpt>
      <trkpt lat="44.43518" lon="6.85361">
        <ele>1907.39</ele>
        <time>2016-01-30T08:03:11Z</time>
      </trkpt>
      <trkpt lat="44.43489" lon="6.85334">
        <ele>1917.49</ele>
        <time>2016-01-30T08:04:11Z</time>
      </trkpt>
      <trkpt lat="44.43446" lon="6.85278">
        <ele>1930.46</ele>
        <time>2016-01-30T08:05:11Z</time>
      </trkpt>
      <trkpt lat="44.43414" lon="6.85212">
        <ele>1939.12</ele>
        <time>2016-01-30T08:06:11Z</time>
      </trkpt>
      <trkpt lat="44.43373" lon="6.85133">
        <ele>1944.4</ele>
        <time>2016-01-30T08:07:11Z</time>
      </trkpt>
      <trkpt lat="44.43322" lon="6.85056">
        <ele>1949.69</ele>
        <time>2016-01-30T08:08:11Z</time>
      </trkpt>
      <trkpt lat="44.43262" lon="6.85008">
        <ele>1958.34</ele>
        <time>2016-01-30T08:09:11Z</time>
      </trkpt>
      <trkpt lat="44.43229" lon="6.84978">
        <ele>1963.63</ele>
        <time>2016-01-30T08:10:11Z</time>
      </trkpt>
      <trkpt lat="44.43164" lon="6.84946">
        <ele>1974.69</ele>
        <time>2016-01-30T08:11:11Z</time>
      </trkpt>
      <trkpt lat="44.43111" lon="6.84888">
        <ele>1981.9</ele>
        <time>2016-01-30T08:12:11Z</time>
      </trkpt>
      <trkpt lat="44.43055" lon="6.8483">
        <ele>1991.03</ele>
        <time>2016-01-30T08:13:11Z</time>
      </trkpt>
      <trkpt lat="44.43003" lon="6.84763">
        <ele>2000.64</ele>
        <time>2016-01-30T08:14:11Z</time>
      </trkpt>
      <trkpt lat="44.42976" lon="6.84674">
        <ele>2008.81</ele>
        <time>2016-01-30T08:15:11Z</time>
      </trkpt>
      <trkpt lat="44.42937" lon="6.84618">
        <ele>2018.43</ele>
        <time>2016-01-30T08:16:11Z</time>
      </trkpt>
      <trkpt lat="44.42931" lon="6.8456">
        <ele>2030.92</ele>
        <time>2016-01-30T08:17:11Z</time>
      </trkpt>
      <trkpt lat="44.42909" lon="6.84556">
        <ele>2041.02</ele>
        <time>2016-01-30T08:18:11Z</time>
      </trkpt>
      <trkpt lat="44.42892" lon="6.84518">
        <ele>2055.92</ele>
        <time>2016-01-30T08:19:11Z</time>
      </trkpt>
      <trkpt lat="44.42889" lon="6.84486">
        <ele>2066.01</ele>
        <time>2016-01-30T08:20:11Z</time>
      </trkpt>
      <trkpt lat="44.42876" lon="6.8445">
        <ele>2079.95</ele>
        <time>2016-01-30T08:21:11Z</time>
      </trkpt>
      <trkpt lat="44.42853" lon="6.84449">
        <ele>2091</ele>
        <time>2016-01-30T08:22:11Z</time>
      </trkpt>
      <trkpt lat="44.42838" lon="6.84448">
        <ele>2100.14</ele>
        <time>2016-01-30T08:23:11Z</time>
      </trkpt>
      <trkpt lat="44.42812" lon="6.84451">
        <ele>2112.15</ele>
        <time>2016-01-30T08:24:11Z</time>
      </trkpt>
      <trkpt lat="44.4278" lon="6.84495">
        <ele>2124.17</ele>
        <time>2016-01-30T08:25:11Z</time>
      </trkpt>
      <trkpt lat="44.42755" lon="6.84486">
        <ele>2137.15</ele>
        <time>2016-01-30T08:26:11Z</time>
      </trkpt>
      <trkpt lat="44.42724" lon="6.84466">
        <ele>2151.09</ele>
        <time>2016-01-30T08:27:11Z</time>
      </trkpt>
      <trkpt lat="44.42689" lon="6.8445">
        <ele>2160.22</ele>
        <time>2016-01-30T08:28:10Z</time>
      </trkpt>
      <trkpt lat="44.42687" lon="6.84449">
        <ele>2160.22</ele>
        <time>2016-01-30T08:29:10Z</time>
      </trkpt>
      <trkpt lat="44.42688" lon="6.84447">
        <ele>2159.26</ele>
        <time>2016-01-30T08:30:11Z</time>
      </trkpt>
      <trkpt lat="44.4269" lon="6.84446">
        <ele>2159.26</ele>
        <time>2016-01-30T08:31:11Z</time>
      </trkpt>
      <trkpt lat="44.42691" lon="6.84444">
        <ele>2158.3</ele>
        <time>2016-01-30T08:32:11Z</time>
      </trkpt>
      <trkpt lat="44.4266" lon="6.84432">
        <ele>2160.7</ele>
        <time>2016-01-30T08:33:11Z</time>
      </trkpt>
      <trkpt lat="44.42617" lon="6.84402">
        <ele>2164.06</ele>
        <time>2016-01-30T08:34:11Z</time>
      </trkpt>
      <trkpt lat="44.42553" lon="6.84391">
        <ele>2174.64</ele>
        <time>2016-01-30T08:35:11Z</time>
      </trkpt>
      <trkpt lat="44.42508" lon="6.84412">
        <ele>2188.58</ele>
        <time>2016-01-30T08:36:11Z</time>
      </trkpt>
      <trkpt lat="44.42482" lon="6.84411">
        <ele>2202.52</ele>
        <time>2016-01-30T08:37:11Z</time>
      </trkpt>
      <trkpt lat="44.42459" lon="6.84397">
        <ele>2213.09</ele>
        <time>2016-01-30T08:38:11Z</time>
      </trkpt>
      <trkpt lat="44.42429" lon="6.84377">
        <ele>2226.07</ele>
        <time>2016-01-30T08:39:11Z</time>
      </trkpt>
      <trkpt lat="44.42422" lon="6.84346">
        <ele>2235.68</ele>
        <time>2016-01-30T08:40:11Z</time>
      </trkpt>
      <trkpt lat="44.42369" lon="6.84355">
        <ele>2249.14</ele>
        <time>2016-01-30T08:41:11Z</time>
      </trkpt>
      <trkpt lat="44.42349" lon="6.84357">
        <ele>2260.68</ele>
        <time>2016-01-30T08:42:11Z</time>
      </trkpt>
      <trkpt lat="44.42332" lon="6.84352">
        <ele>2274.14</ele>
        <time>2016-01-30T08:43:11Z</time>
      </trkpt>
      <trkpt lat="44.42308" lon="6.84386">
        <ele>2290</ele>
        <time>2016-01-30T08:44:11Z</time>
      </trkpt>
      <trkpt lat="44.42287" lon="6.84403">
        <ele>2301.05</ele>
        <time>2016-01-30T08:45:10Z</time>
      </trkpt>
      <trkpt lat="44.42262" lon="6.84403">
        <ele>2313.07</ele>
        <time>2016-01-30T08:46:11Z</time>
      </trkpt>
      <trkpt lat="44.42237" lon="6.84417">
        <ele>2325.57</ele>
        <time>2016-01-30T08:47:11Z</time>
      </trkpt>
      <trkpt lat="44.42202" lon="6.84419">
        <ele>2333.74</ele>
        <time>2016-01-30T08:48:11Z</time>
      </trkpt>
      <trkpt lat="44.42157" lon="6.8441">
        <ele>2347.68</ele>
        <time>2016-01-30T08:49:10Z</time>
      </trkpt>
      <trkpt lat="44.42146" lon="6.84389">
        <ele>2352.48</ele>
        <time>2016-01-30T08:50:10Z</time>
      </trkpt>
      <trkpt lat="44.42127" lon="6.84355">
        <ele>2361.14</ele>
        <time>2016-01-30T08:51:11Z</time>
      </trkpt>
      <trkpt lat="44.42122" lon="6.84364">
        <ele>2367.86</ele>
        <time>2016-01-30T08:52:11Z</time>
      </trkpt>
      <trkpt lat="44.4211" lon="6.84356">
        <ele>2375.07</ele>
        <time>2016-01-30T08:53:11Z</time>
      </trkpt>
      <trkpt lat="44.4207" lon="6.84334">
        <ele>2386.13</ele>
        <time>2016-01-30T08:54:11Z</time>
      </trkpt>
      <trkpt lat="44.42018" lon="6.8434">
        <ele>2396.22</ele>
        <time>2016-01-30T08:55:11Z</time>
      </trkpt>
      <trkpt lat="44.41965" lon="6.84342">
        <ele>2406.32</ele>
        <time>2016-01-30T08:56:11Z</time>
      </trkpt>
      <trkpt lat="44.41933" lon="6.84349">
        <ele>2414.49</ele>
        <time>2016-01-30T08:57:11Z</time>
      </trkpt>
      <trkpt lat="44.4187" lon="6.8439">
        <ele>2407.28</ele>
        <time>2016-01-30T08:58:11Z</time>
      </trkpt>
      <trkpt lat="44.41814" lon="6.84406">
        <ele>2408.72</ele>
        <time>2016-01-30T08:59:11Z</time>
      </trkpt>
      <trkpt lat="44.41815" lon="6.84404">
        <ele>2411.12</ele>
        <time>2016-01-30T09:00:11Z</time>
      </trkpt>
      <trkpt lat="44.41814" lon="6.84405">
        <ele>2409.2</ele>
        <time>2016-01-30T09:01:11Z</time>
      </trkpt>
      <trkpt lat="44.41771" lon="6.84359">
        <ele>2415.93</ele>
        <time>2016-01-30T09:02:11Z</time>
      </trkpt>
      <trkpt lat="44.41715" lon="6.84338">
        <ele>2426.99</ele>
        <time>2016-01-30T09:03:11Z</time>
      </trkpt>
      <trkpt lat="44.41666" lon="6.84291">
        <ele>2437.08</ele>
        <time>2016-01-30T09:04:11Z</time>
      </trkpt>
      <trkpt lat="44.41638" lon="6.84227">
        <ele>2448.62</ele>
        <time>2016-01-30T09:05:11Z</time>
      </trkpt>
      <trkpt lat="44.41613" lon="6.84224">
        <ele>2459.67</ele>
        <time>2016-01-30T09:06:11Z</time>
      </trkpt>
      <trkpt lat="44.41604" lon="6.8421">
        <ele>2467.36</ele>
        <time>2016-01-30T09:07:11Z</time>
      </trkpt>
      <trkpt lat="44.41593" lon="6.84208">
        <ele>2473.61</ele>
        <time>2016-01-30T09:08:11Z</time>
      </trkpt>
      <trkpt lat="44.41597" lon="6.84195">
        <ele>2477.45</ele>
        <time>2016-01-30T09:09:10Z</time>
      </trkpt>
      <trkpt lat="44.41586" lon="6.84165">
        <ele>2485.63</ele>
        <time>2016-01-30T09:10:11Z</time>
      </trkpt>
      <trkpt lat="44.41598" lon="6.84094">
        <ele>2489.95</ele>
        <time>2016-01-30T09:11:10Z</time>
      </trkpt>
      <trkpt lat="44.41592" lon="6.84096">
        <ele>2488.51</ele>
        <time>2016-01-30T09:12:11Z</time>
      </trkpt>
      <trkpt lat="44.41593" lon="6.84097">
        <ele>2487.07</ele>
        <time>2016-01-30T09:13:11Z</time>
      </trkpt>
      <trkpt lat="44.41578" lon="6.84105">
        <ele>2487.55</ele>
        <time>2016-01-30T09:14:11Z</time>
      </trkpt>
      <trkpt lat="44.41524" lon="6.84097">
        <ele>2491.87</ele>
        <time>2016-01-30T09:15:11Z</time>
      </trkpt>
      <trkpt lat="44.41481" lon="6.84101">
        <ele>2500.05</ele>
        <time>2016-01-30T09:16:11Z</time>
      </trkpt>
      <trkpt lat="44.41436" lon="6.84079">
        <ele>2508.7</ele>
        <time>2016-01-30T09:17:11Z</time>
      </trkpt>
      <trkpt lat="44.41391" lon="6.84042">
        <ele>2514.95</ele>
        <time>2016-01-30T09:18:11Z</time>
      </trkpt>
      <trkpt lat="44.41373" lon="6.84057">
        <ele>2518.79</ele>
        <time>2016-01-30T09:19:11Z</time>
      </trkpt>
      <trkpt lat="44.41344" lon="6.84115">
        <ele>2520.23</ele>
        <time>2016-01-30T09:20:11Z</time>
      </trkpt>
      <trkpt lat="44.41306" lon="6.84128">
        <ele>2538.5</ele>
        <time>2016-01-30T09:21:11Z</time>
      </trkpt>
      <trkpt lat="44.41289" lon="6.84134">
        <ele>2545.71</ele>
        <time>2016-01-30T09:22:11Z</time>
      </trkpt>
      <trkpt lat="44.41273" lon="6.84154">
        <ele>2548.11</ele>
        <time>2016-01-30T09:23:11Z</time>
      </trkpt>
      <trkpt lat="44.41239" lon="6.84184">
        <ele>2551</ele>
        <time>2016-01-30T09:24:11Z</time>
      </trkpt>
      <trkpt lat="44.41211" lon="6.84184">
        <ele>2553.88</ele>
        <time>2016-01-30T09:25:11Z</time>
      </trkpt>
      <trkpt lat="44.4121" lon="6.84183">
        <ele>2554.84</ele>
        <time>2016-01-30T09:26:11Z</time>
      </trkpt>
      <trkpt lat="44.41199" lon="6.84189">
        <ele>2562.05</ele>
        <time>2016-01-30T09:27:11Z</time>
      </trkpt>
      <trkpt lat="44.41192" lon="6.84221">
        <ele>2573.11</ele>
        <time>2016-01-30T09:28:11Z</time>
      </trkpt>
      <trkpt lat="44.41174" lon="6.84205">
        <ele>2575.51</ele>
        <time>2016-01-30T09:29:11Z</time>
      </trkpt>
      <trkpt lat="44.41154" lon="6.84192">
        <ele>2582.72</ele>
        <time>2016-01-30T09:30:11Z</time>
      </trkpt>
      <trkpt lat="44.41157" lon="6.8422">
        <ele>2600.5</ele>
        <time>2016-01-30T09:31:11Z</time>
      </trkpt>
      <trkpt lat="44.41146" lon="6.84222">
        <ele>2600.98</ele>
        <time>2016-01-30T09:32:11Z</time>
      </trkpt>
      <trkpt lat="44.41131" lon="6.8421">
        <ele>2604.35</ele>
        <time>2016-01-30T09:33:10Z</time>
      </trkpt>
      <trkpt lat="44.41115" lon="6.8419">
        <ele>2605.79</ele>
        <time>2016-01-30T09:34:11Z</time>
      </trkpt>
      <trkpt lat="44.41099" lon="6.84154">
        <ele>2618.29</ele>
        <time>2016-01-30T09:35:11Z</time>
      </trkpt>
      <trkpt lat="44.41097" lon="6.84134">
        <ele>2623.58</ele>
        <time>2016-01-30T09:36:11Z</time>
      </trkpt>
      <trkpt lat="44.41096" lon="6.84114">
        <ele>2625.02</ele>
        <time>2016-01-30T09:37:11Z</time>
      </trkpt>
      <trkpt lat="44.41084" lon="6.84089">
        <ele>2629.82</ele>
        <time>2016-01-30T09:38:11Z</time>
      </trkpt>
      <trkpt lat="44.41084" lon="6.84094">
        <ele>2633.67</ele>
        <time>2016-01-30T09:39:11Z</time>
      </trkpt>
      <trkpt lat="44.41084" lon="6.84093">
        <ele>2636.07</ele>
        <time>2016-01-30T09:40:11Z</time>
      </trkpt>
      <trkpt lat="44.41079" lon="6.84081">
        <ele>2638.48</ele>
        <time>2016-01-30T09:41:11Z</time>
      </trkpt>
      <trkpt lat="44.41063" lon="6.84099">
        <ele>2646.65</ele>
        <time>2016-01-30T09:42:11Z</time>
      </trkpt>
      <trkpt lat="44.41054" lon="6.8411">
        <ele>2654.82</ele>
        <time>2016-01-30T09:43:11Z</time>
      </trkpt>
      <trkpt lat="44.41037" lon="6.84119">
        <ele>2659.62</ele>
        <time>2016-01-30T09:44:11Z</time>
      </trkpt>
      <trkpt lat="44.4102" lon="6.84121">
        <ele>2669.24</ele>
        <time>2016-01-30T09:45:11Z</time>
      </trkpt>
      <trkpt lat="44.40999" lon="6.84083">
        <ele>2678.85</ele>
        <time>2016-01-30T09:46:11Z</time>
      </trkpt>
      <trkpt lat="44.40982" lon="6.84053">
        <ele>2687.98</ele>
        <time>2016-01-30T09:47:11Z</time>
      </trkpt>
      <trkpt lat="44.40969" lon="6.84071">
        <ele>2694.71</ele>
        <time>2016-01-30T09:48:11Z</time>
      </trkpt>
      <trkpt lat="44.40956" lon="6.84091">
        <ele>2701.92</ele>
        <time>2016-01-30T09:49:11Z</time>
      </trkpt>
      <trkpt lat="44.40956" lon="6.84093">
        <ele>2699.52</ele>
        <time>2016-01-30T09:50:11Z</time>
      </trkpt>
      <trkpt lat="44.40956" lon="6.84093">
        <ele>2698.08</ele>
        <time>2016-01-30T09:51:11Z</time>
      </trkpt>
      <trkpt lat="44.40956" lon="6.84093">
        <ele>2698.56</ele>
        <time>2016-01-30T09:52:11Z</time>
      </trkpt>
      <trkpt lat="44.40956" lon="6.84093">
        <ele>2698.56</ele>
        <time>2016-01-30T09:53:11Z</time>
      </trkpt>
      <trkpt lat="44.40955" lon="6.84093">
        <ele>2698.56</ele>
        <time>2016-01-30T09:54:11Z</time>
      </trkpt>
      <trkpt lat="44.40938" lon="6.84136">
        <ele>2707.21</ele>
        <time>2016-01-30T09:55:11Z</time>
      </trkpt>
      <trkpt lat="44.40921" lon="6.84141">
        <ele>2714.42</ele>
        <time>2016-01-30T09:56:11Z</time>
      </trkpt>
      <trkpt lat="44.40908" lon="6.8417">
        <ele>2722.59</ele>
        <time>2016-01-30T09:57:11Z</time>
      </trkpt>
      <trkpt lat="44.40914" lon="6.84196">
        <ele>2733.65</ele>
        <time>2016-01-30T09:58:11Z</time>
      </trkpt>
      <trkpt lat="44.40917" lon="6.84223">
        <ele>2740.86</ele>
        <time>2016-01-30T09:59:11Z</time>
      </trkpt>
      <trkpt lat="44.40916" lon="6.84222">
        <ele>2741.34</ele>
        <time>2016-01-30T10:00:11Z</time>
      </trkpt>
      <trkpt lat="44.40916" lon="6.84222">
        <ele>2741.34</ele>
        <time>2016-01-30T10:01:11Z</time>
      </trkpt>
      <trkpt lat="44.40905" lon="6.84245">
        <ele>2745.18</ele>
        <time>2016-01-30T10:02:11Z</time>
      </trkpt>
      <trkpt lat="44.40904" lon="6.84266">
        <ele>2747.59</ele>
        <time>2016-01-30T10:03:11Z</time>
      </trkpt>
      <trkpt lat="44.40907" lon="6.84312">
        <ele>2753.35</ele>
        <time>2016-01-30T10:04:11Z</time>
      </trkpt>
      <trkpt lat="44.40901" lon="6.84356">
        <ele>2767.77</ele>
        <time>2016-01-30T10:05:11Z</time>
      </trkpt>
      <trkpt lat="44.40896" lon="6.8439">
        <ele>2774.02</ele>
        <time>2016-01-30T10:06:11Z</time>
      </trkpt>
      <trkpt lat="44.40888" lon="6.84401">
        <ele>2779.79</ele>
        <time>2016-01-30T10:07:11Z</time>
      </trkpt>
      <trkpt lat="44.40874" lon="6.8438">
        <ele>2787.48</ele>
        <time>2016-01-30T10:08:11Z</time>
      </trkpt>
      <trkpt lat="44.4086" lon="6.8444">
        <ele>2793.73</ele>
        <time>2016-01-30T10:09:11Z</time>
      </trkpt>
      <trkpt lat="44.40842" lon="6.84491">
        <ele>2799.98</ele>
        <time>2016-01-30T10:10:11Z</time>
      </trkpt>
      <trkpt lat="44.40827" lon="6.84495">
        <ele>2806.23</ele>
        <time>2016-01-30T10:11:11Z</time>
      </trkpt>
      <trkpt lat="44.40812" lon="6.84459">
        <ele>2819.2</ele>
        <time>2016-01-30T10:12:11Z</time>
      </trkpt>
      <trkpt lat="44.40799" lon="6.84496">
        <ele>2827.85</ele>
        <time>2016-01-30T10:13:11Z</time>
      </trkpt>
      <trkpt lat="44.40787" lon="6.84507">
        <ele>2833.14</ele>
        <time>2016-01-30T10:14:11Z</time>
      </trkpt>
      <trkpt lat="44.4076" lon="6.84486">
        <ele>2842.76</ele>
        <time>2016-01-30T10:15:11Z</time>
      </trkpt>
      <trkpt lat="44.40733" lon="6.84462">
        <ele>2857.18</ele>
        <time>2016-01-30T10:16:11Z</time>
      </trkpt>
      <trkpt lat="44.4073" lon="6.84489">
        <ele>2861.02</ele>
        <time>2016-01-30T10:17:10Z</time>
      </trkpt>
      <trkpt lat="44.40726" lon="6.84503">
        <ele>2864.87</ele>
        <time>2016-01-30T10:18:11Z</time>
      </trkpt>
      <trkpt lat="44.4072" lon="6.84504">
        <ele>2871.6</ele>
        <time>2016-01-30T10:19:11Z</time>
      </trkpt>
      <trkpt lat="44.40718" lon="6.84506">
        <ele>2873.04</ele>
        <time>2016-01-30T10:20:11Z</time>
      </trkpt>
      <trkpt lat="44.40718" lon="6.84506">
        <ele>2873.52</ele>
        <time>2016-01-30T10:21:11Z</time>
      </trkpt>
      <trkpt lat="44.40718" lon="6.84508">
        <ele>2873.52</ele>
        <time>2016-01-30T10:22:11Z</time>
      </trkpt>
      <trkpt lat="44.40718" lon="6.84507">
        <ele>2874.96</ele>
        <time>2016-01-30T10:23:10Z</time>
      </trkpt>
      <trkpt lat="44.40718" lon="6.84506">
        <ele>2874.96</ele>
        <time>2016-01-30T10:24:11Z</time>
      </trkpt>
      <trkpt lat="44.40717" lon="6.84505">
        <ele>2876.88</ele>
        <time>2016-01-30T10:25:11Z</time>
      </trkpt>
      <trkpt lat="44.40718" lon="6.84503">
        <ele>2877.36</ele>
        <time>2016-01-30T10:26:11Z</time>
      </trkpt>
      <trkpt lat="44.40719" lon="6.84503">
        <ele>2876.4</ele>
        <time>2016-01-30T10:27:11Z</time>
      </trkpt>
      <trkpt lat="44.40719" lon="6.84503">
        <ele>2875.92</ele>
        <time>2016-01-30T10:28:11Z</time>
      </trkpt>
      <trkpt lat="44.40719" lon="6.84503">
        <ele>2875.92</ele>
        <time>2016-01-30T10:29:11Z</time>
      </trkpt>
      <trkpt lat="44.40691" lon="6.84522">
        <ele>2862.94</ele>
        <time>2016-01-30T10:30:11Z</time>
      </trkpt>
      <trkpt lat="44.40686" lon="6.84609">
        <ele>2824.49</ele>
        <time>2016-01-30T10:31:11Z</time>
      </trkpt>
      <trkpt lat="44.40685" lon="6.84694">
        <ele>2793.25</ele>
        <time>2016-01-30T10:32:11Z</time>
      </trkpt>
      <trkpt lat="44.40745" lon="6.84793">
        <ele>2747.1</ele>
        <time>2016-01-30T10:33:11Z</time>
      </trkpt>
      <trkpt lat="44.40743" lon="6.84797">
        <ele>2740.38</ele>
        <time>2016-01-30T10:34:11Z</time>
      </trkpt>
      <trkpt lat="44.40743" lon="6.84795">
        <ele>2739.41</ele>
        <time>2016-01-30T10:35:11Z</time>
      </trkpt>
      <trkpt lat="44.4074" lon="6.84854">
        <ele>2718.75</ele>
        <time>2016-01-30T10:36:11Z</time>
      </trkpt>
      <trkpt lat="44.40783" lon="6.84905">
        <ele>2688.46</ele>
        <time>2016-01-30T10:37:11Z</time>
      </trkpt>
      <trkpt lat="44.40991" lon="6.85053">
        <ele>2642.8</ele>
        <time>2016-01-30T10:38:11Z</time>
      </trkpt>
      <trkpt lat="44.40995" lon="6.8505">
        <ele>2645.21</ele>
        <time>2016-01-30T10:39:11Z</time>
      </trkpt>
      <trkpt lat="44.4111" lon="6.85099">
        <ele>2591.37</ele>
        <time>2016-01-30T10:40:11Z</time>
      </trkpt>
      <trkpt lat="44.41226" lon="6.8507">
        <ele>2563.97</ele>
        <time>2016-01-30T10:41:11Z</time>
      </trkpt>
      <trkpt lat="44.41349" lon="6.85213">
        <ele>2459.67</ele>
        <time>2016-01-30T10:42:11Z</time>
      </trkpt>
      <trkpt lat="44.4135" lon="6.85212">
        <ele>2461.11</ele>
        <time>2016-01-30T10:43:11Z</time>
      </trkpt>
      <trkpt lat="44.41351" lon="6.85212">
        <ele>2465.44</ele>
        <time>2016-01-30T10:44:11Z</time>
      </trkpt>
      <trkpt lat="44.4147" lon="6.85265">
        <ele>2436.12</ele>
        <time>2016-01-30T10:45:11Z</time>
      </trkpt>
      <trkpt lat="44.4172" lon="6.85557">
        <ele>2360.65</ele>
        <time>2016-01-30T10:46:11Z</time>
      </trkpt>
      <trkpt lat="44.41851" lon="6.85758">
        <ele>2319.32</ele>
        <time>2016-01-30T10:47:11Z</time>
      </trkpt>
      <trkpt lat="44.41898" lon="6.8609">
        <ele>2240.49</ele>
        <time>2016-01-30T10:48:11Z</time>
      </trkpt>
      <trkpt lat="44.42022" lon="6.86104">
        <ele>2212.13</ele>
        <time>2016-01-30T10:49:11Z</time>
      </trkpt>
      <trkpt lat="44.42021" lon="6.86105">
        <ele>2209.25</ele>
        <time>2016-01-30T10:50:11Z</time>
      </trkpt>
      <trkpt lat="44.42276" lon="6.86123">
        <ele>2178.48</ele>
        <time>2016-01-30T10:51:11Z</time>
      </trkpt>
      <trkpt lat="44.42491" lon="6.86218">
        <ele>2149.16</ele>
        <time>2016-01-30T10:52:11Z</time>
      </trkpt>
      <trkpt lat="44.426" lon="6.86267">
        <ele>2123.21</ele>
        <time>2016-01-30T10:53:11Z</time>
      </trkpt>
      <trkpt lat="44.42891" lon="6.86324">
        <ele>2075.62</ele>
        <time>2016-01-30T10:54:11Z</time>
      </trkpt>
      <trkpt lat="44.42859" lon="6.86446">
        <ele>2036.69</ele>
        <time>2016-01-30T10:55:11Z</time>
      </trkpt>
      <trkpt lat="44.42909" lon="6.8661">
        <ele>1973.24</ele>
        <time>2016-01-30T10:56:11Z</time>
      </trkpt>
      <trkpt lat="44.42957" lon="6.86785">
        <ele>1881.92</ele>
        <time>2016-01-30T10:57:11Z</time>
      </trkpt>
      <trkpt lat="44.43013" lon="6.86972">
        <ele>1827.12</ele>
        <time>2016-01-30T10:58:11Z</time>
      </trkpt>
      <trkpt lat="44.43192" lon="6.87015">
        <ele>1768.48</ele>
        <time>2016-01-30T10:59:11Z</time>
      </trkpt>
      <trkpt lat="44.43419" lon="6.86749">
        <ele>1750.7</ele>
        <time>2016-01-30T11:00:11Z</time>
      </trkpt>
      <trkpt lat="44.43588" lon="6.86545">
        <ele>1725.7</ele>
        <time>2016-01-30T11:01:11Z</time>
      </trkpt>
      <trkpt lat="44.43785" lon="6.86216">
        <ele>1709.36</ele>
        <time>2016-01-30T11:02:11Z</time>
      </trkpt>
      <trkpt lat="44.44042" lon="6.85948">
        <ele>1695.9</ele>
        <time>2016-01-30T11:03:11Z</time>
      </trkpt>
      <trkpt lat="44.44236" lon="6.85707">
        <ele>1692.06</ele>
        <time>2016-01-30T11:04:11Z</time>
      </trkpt>
      <trkpt lat="44.44382" lon="6.85489">
        <ele>1686.29</ele>
        <time>2016-01-30T11:05:11Z</time>
      </trkpt>
      <trkpt lat="44.44544" lon="6.85351">
        <ele>1682.44</ele>
        <time>2016-01-30T11:06:11Z</time>
      </trkpt>
      <trkpt lat="44.44627" lon="6.85299">
        <ele>1681.96</ele>
        <time>2016-01-30T11:07:11Z</time>
      </trkpt>
    </trkseg>
  </trk>
</gpx>